Pan Freesia — V7SB5 — position and weather

sailwx.info

Track history (hours):
 
Tides and Currents Weather Stations Pressure Air Temp Water Temp Dewpoint Dewpoint Depression Visibility Wind Speed Wind Dir Waves Ship Positions

Pan Freesia

Last reported at 2017-Jun-28 19:59 UTC. Time now 2017-Jul-21 00:49 UTC.
Position N 38°09' E 122°32'.
Warning: this ship's position is 22 days out of date.

Length 292 m; draft 8.8 m.

Type: Cargo ship. MMSI: 538003616.

Date/timePositionNaut miles runAvg speedWind from/ knotsBaromVisibWave heightAir tempDewpointWater temp
2017-Jun-28 19:59N 38°09' E 122°32'1814.7
2017-Jun-28 18:47N 38°15' E 122°11'414.6
2017-Jun-28 18:29N 38°16' E 122°06'714.6
2017-Jun-28 17:59N 38°18' E 121°57'1314.6
2017-Jun-28 17:05N 38°22' E 121°40'414.6
2017-Jun-28 16:50N 38°23' E 121°36'1314.9
2017-Jun-28 15:58N 38°25' E 121°20'7112.5
2017-Jun-28 10:16N 39°15' E 120°15'711.7
2017-Jun-28 09:42N 39°21' E 120°12'  
2017-Jun-21 13:39N 39°25' E 120°11'313.1
2017-Jun-21 13:28N 39°23' E 120°13'713.0
2017-Jun-21 12:58N 39°18' E 120°18'613.0
2017-Jun-21 12:29N 39°13' E 120°22'612.6
2017-Jun-21 11:59N 39°08' E 120°27'612.4
2017-Jun-21 11:30N 39°03' E 120°31'612.1
2017-Jun-21 11:00N 38°57' E 120°35'612.1
2017-Jun-21 10:30N 38°53' E 120°39'612.0
2017-Jun-21 10:00N 38°48' E 120°45'612.0
2017-Jun-21 09:30N 38°44' E 120°50'612.0
2017-Jun-21 09:00N 38°38' E 120°53'611.5
2017-Jun-21 08:30N 38°35' E 120°60'611.0
2017-Jun-21 08:00N 38°33' E 121°06'5 9.8
2017-Jun-21 07:30N 38°31' E 121°12'510.0
2017-Jun-21 07:00N 38°30' E 121°18'5 9.3
2017-Jun-21 06:30N 38°30' E 121°24'1 1.1
2017-Jun-21 05:45N 38°30' E 121°25'0 0.1
2017-Jun-21 05:29N 38°30' E 121°25'14 2.4
2017-Jun-20 23:50N 38°25' E 121°41'513.1
2017-Jun-20 23:27N 38°24' E 121°47'712.8
2017-Jun-20 22:52N 38°23' E 121°57'812.8
2017-Jun-20 22:15N 38°21' E 122°07'312.9
2017-Jun-20 22:00N 38°20' E 122°10'612.7
2017-Jun-20 21:30N 38°18' E 122°18'612.6
2017-Jun-20 21:00N 38°17' E 122°26'612.4
2017-Jun-20 20:30N 38°16' E 122°34'612.5
2017-Jun-20 20:00N 38°14' E 122°42'2711.5
2017-Jun-20 17:39N 38°03' E 123°13'513.0
2017-Jun-20 17:15N 37°58' E 123°15'512.8
2017-Jun-20 16:52N 37°54' E 123°18'412.6
2017-Jun-20 16:30N 37°50' E 123°20'  
Track history (hours):
 
Tides and Currents Weather Stations Pressure Air Temp Water Temp Dewpoint Dewpoint Depression Visibility Wind Speed Wind Dir Waves Ship Positions

Pan Freesia

Last reported at 2017-Jun-28 19:59 UTC. Time now 2017-Jul-21 00:49 UTC.
Position N 38°09' E 122°32'.
Warning: this ship's position is 22 days out of date.

Length 292 m; draft 8.8 m.

Type: Cargo ship. MMSI: 538003616.

Date/timePositionNaut miles runAvg speedWind from/ knotsBaromVisibWave heightAir tempDewpointWater temp
2017-Jun-28 19:59N 38°09' E 122°32'1814.7
2017-Jun-28 18:47N 38°15' E 122°11'414.6
2017-Jun-28 18:29N 38°16' E 122°06'714.6
2017-Jun-28 17:59N 38°18' E 121°57'1314.6
2017-Jun-28 17:05N 38°22' E 121°40'414.6
2017-Jun-28 16:50N 38°23' E 121°36'1314.9
2017-Jun-28 15:58N 38°25' E 121°20'7112.5
2017-Jun-28 10:16N 39°15' E 120°15'711.7
2017-Jun-28 09:42N 39°21' E 120°12'  
2017-Jun-21 13:39N 39°25' E 120°11'313.1
2017-Jun-21 13:28N 39°23' E 120°13'713.0
2017-Jun-21 12:58N 39°18' E 120°18'613.0
2017-Jun-21 12:29N 39°13' E 120°22'612.6
2017-Jun-21 11:59N 39°08' E 120°27'612.4
2017-Jun-21 11:30N 39°03' E 120°31'612.1
2017-Jun-21 11:00N 38°57' E 120°35'612.1
2017-Jun-21 10:30N 38°53' E 120°39'612.0
2017-Jun-21 10:00N 38°48' E 120°45'612.0
2017-Jun-21 09:30N 38°44' E 120°50'612.0
2017-Jun-21 09:00N 38°38' E 120°53'611.5
2017-Jun-21 08:30N 38°35' E 120°60'611.0
2017-Jun-21 08:00N 38°33' E 121°06'5 9.8
2017-Jun-21 07:30N 38°31' E 121°12'510.0
2017-Jun-21 07:00N 38°30' E 121°18'5 9.3
2017-Jun-21 06:30N 38°30' E 121°24'1 1.1
2017-Jun-21 05:45N 38°30' E 121°25'0 0.1
2017-Jun-21 05:29N 38°30' E 121°25'14 2.4
2017-Jun-20 23:50N 38°25' E 121°41'513.1
2017-Jun-20 23:27N 38°24' E 121°47'712.8
2017-Jun-20 22:52N 38°23' E 121°57'812.8
2017-Jun-20 22:15N 38°21' E 122°07'312.9
2017-Jun-20 22:00N 38°20' E 122°10'612.7
2017-Jun-20 21:30N 38°18' E 122°18'612.6
2017-Jun-20 21:00N 38°17' E 122°26'612.4
2017-Jun-20 20:30N 38°16' E 122°34'612.5
2017-Jun-20 20:00N 38°14' E 122°42'2711.5
2017-Jun-20 17:39N 38°03' E 123°13'513.0
2017-Jun-20 17:15N 37°58' E 123°15'512.8
2017-Jun-20 16:52N 37°54' E 123°18'412.6
2017-Jun-20 16:30N 37°50' E 123°20'  

Dump ship's entire track history